createdAt,value
2022-11-16T00:00:21.887Z,9.27
2022-11-16T00:05:28.343Z,9.73
2022-11-16T00:10:32.234Z,10.36
2022-11-16T00:15:38.168Z,10.29
2022-11-16T00:20:42.329Z,10.06
2022-11-16T00:25:46.728Z,9.87
2022-11-16T00:30:59.553Z,9.68
2022-11-16T00:36:03.841Z,9.87
2022-11-16T00:41:07.809Z,9.72
2022-11-16T00:46:12.758Z,9.95
2022-11-16T00:51:16.281Z,9.96
2022-11-16T00:56:19.899Z,10.25
2022-11-16T01:01:25.093Z,10.32
2022-11-16T01:06:28.827Z,10.32
2022-11-16T01:11:49.712Z,10.23
2022-11-16T01:16:54.660Z,10.20
2022-11-16T01:21:58.906Z,10.13
2022-11-16T01:27:02.465Z,10.02
2022-11-16T01:32:09.952Z,9.94
2022-11-16T01:37:13.768Z,9.95
2022-11-16T01:42:19.872Z,10.00
2022-11-16T01:47:26.294Z,9.90
2022-11-16T01:52:34.874Z,9.88
2022-11-16T01:57:42.165Z,10.30
2022-11-16T02:02:47.591Z,10.24
2022-11-16T02:08:38.598Z,10.98
2022-11-16T02:13:55.992Z,11.36
2022-11-16T02:19:15.735Z,11.44
2022-11-16T02:24:49.474Z,11.35
2022-11-16T02:29:56.118Z,11.28
2022-11-16T02:35:05.912Z,11.18
2022-11-16T02:40:12.903Z,11.34
2022-11-16T02:45:23.019Z,11.23
2022-11-16T02:50:28.893Z,11.10
2022-11-16T02:55:35.325Z,11.22
2022-11-16T03:00:45.314Z,10.99
2022-11-16T03:05:54.008Z,11.16
2022-11-16T03:11:21.075Z,11.11
2022-11-16T03:16:31.403Z,11.05
2022-11-16T03:21:41.005Z,11.04
2022-11-16T03:27:01.992Z,10.89
2022-11-16T03:32:16.526Z,10.87
2022-11-16T03:37:21.475Z,10.78
2022-11-16T03:42:27.882Z,10.81
2022-11-16T03:47:33.530Z,10.57
2022-11-16T03:52:37.666Z,10.79
2022-11-16T03:57:41.472Z,10.71
2022-11-16T04:02:46.652Z,10.64
2022-11-16T04:08:21.383Z,10.50
2022-11-16T04:13:46.575Z,10.45
2022-11-16T04:19:09.093Z,10.12
2022-11-16T04:24:16.146Z,9.97
2022-11-16T04:29:20.313Z,9.80
2022-11-16T04:34:43.351Z,9.63
2022-11-16T04:39:47.182Z,9.57
2022-11-16T04:45:08.212Z,9.56
2022-11-16T04:50:24.501Z,9.49
2022-11-16T04:55:28.382Z,9.49
2022-11-16T05:00:32.534Z,9.13
2022-11-16T05:05:38.804Z,9.35
2022-11-16T05:10:42.974Z,9.27
2022-11-16T05:15:47.803Z,8.93
2022-11-16T05:21:02.731Z,9.04
2022-11-16T05:26:12.904Z,9.20
2022-11-16T05:31:16.780Z,9.06
2022-11-16T05:36:22.655Z,9.08
2022-11-16T05:41:27.168Z,9.14
2022-11-16T05:46:31.032Z,9.04
2022-11-16T05:51:39.775Z,8.65
2022-11-16T05:56:44.528Z,9.04
2022-11-16T06:01:48.851Z,9.11
2022-11-16T06:06:54.586Z,9.11
2022-11-16T06:12:02.614Z,8.88
2022-11-16T06:17:07.258Z,9.00
2022-11-16T06:22:12.635Z,9.05
2022-11-16T06:27:16.738Z,9.01
2022-11-16T06:32:21.653Z,8.88
2022-11-16T06:37:26.813Z,8.57
2022-11-16T06:42:30.532Z,8.99
2022-11-16T06:47:36.098Z,8.95
2022-11-16T06:52:41.773Z,9.15
2022-11-16T06:57:46.305Z,9.05
2022-11-16T07:02:50.470Z,9.07
2022-11-16T07:07:58.821Z,9.11
2022-11-16T07:13:04.292Z,9.19
2022-11-16T07:18:09.468Z,9.18
2022-11-16T07:23:17.500Z,9.24
2022-11-16T07:28:22.661Z,9.15
2022-11-16T07:33:26.652Z,9.09
2022-11-16T07:38:48.293Z,9.03
2022-11-16T07:43:53.356Z,9.24
2022-11-16T07:49:04.027Z,9.18
2022-11-16T07:54:24.360Z,9.28
2022-11-16T07:59:28.655Z,9.11
2022-11-16T08:04:32.691Z,9.24
2022-11-16T08:09:39.578Z,9.23
2022-11-16T08:14:47.394Z,9.18
2022-11-16T08:19:51.811Z,9.33
2022-11-16T08:24:56.944Z,9.42
2022-11-16T08:30:03.235Z,9.38
2022-11-16T08:35:07.418Z,9.63
2022-11-16T08:40:15.781Z,9.57
2022-11-16T08:45:20.508Z,9.75
2022-11-16T08:50:24.235Z,9.70
2022-11-16T08:55:29.533Z,9.80
2022-11-16T09:00:34.280Z,9.89
2022-11-16T09:05:39.885Z,10.02
2022-11-16T09:10:44.889Z,9.95
2022-11-16T09:15:48.356Z,9.72
2022-11-16T09:20:52.296Z,9.76
2022-11-16T09:25:57.423Z,9.68
2022-11-16T09:31:04.089Z,9.73
2022-11-16T09:36:09.680Z,9.95
2022-11-16T09:41:34.752Z,9.99
2022-11-16T09:46:42.655Z,9.82
2022-11-16T09:51:50.636Z,10.01
2022-11-16T09:57:00.895Z,10.02
2022-11-16T10:02:17.703Z,10.37
2022-11-16T10:07:26.045Z,10.09
2022-11-16T10:12:40.258Z,10.30
2022-11-16T10:17:55.296Z,10.33
2022-11-16T10:23:07.476Z,10.43
2022-11-16T10:28:31.331Z,10.09
2022-11-16T10:33:38.223Z,10.24
2022-11-16T10:38:43.415Z,10.37
2022-11-16T10:43:49.841Z,10.31
2022-11-16T10:49:02.535Z,10.19
2022-11-16T10:54:13.708Z,10.11
2022-11-16T10:59:20.857Z,10.03
2022-11-16T11:04:26.588Z,10.11
2022-11-16T11:09:32.559Z,9.71
2022-11-16T11:14:42.263Z,10.04
2022-11-16T11:19:45.674Z,10.12
2022-11-16T11:24:50.520Z,10.03
2022-11-16T11:29:58.978Z,10.16
2022-11-16T11:35:04.283Z,10.08
2022-11-16T11:40:23.395Z,10.10
2022-11-16T11:45:39.545Z,9.98
2022-11-16T11:50:47.812Z,10.25
2022-11-16T11:55:56.406Z,10.36
2022-11-16T12:01:33.887Z,10.68
2022-11-16T12:06:44.524Z,10.99
2022-11-16T12:12:02.888Z,10.99
2022-11-16T12:17:19.982Z,11.04
2022-11-16T12:22:43.463Z,11.59
2022-11-16T12:27:54.986Z,11.71
2022-11-16T12:33:18.520Z,11.90
2022-11-16T12:38:36.202Z,11.95
2022-11-16T12:43:50.896Z,12.05
2022-11-16T12:49:19.967Z,12.24
2022-11-16T12:55:24.379Z,12.06
2022-11-16T13:00:17.029Z,12.16
2022-11-16T13:05:33.341Z,12.00
2022-11-16T13:10:42.864Z,11.94
2022-11-16T13:15:47.968Z,12.08
2022-11-16T13:21:00.024Z,11.74
2022-11-16T13:26:10.598Z,12.36
2022-11-16T13:31:20.403Z,12.32
2022-11-16T13:36:46.395Z,12.51
2022-11-16T13:41:51.550Z,12.62
2022-11-16T13:46:59.791Z,12.27
2022-11-16T13:52:22.489Z,12.26
2022-11-16T13:57:30.549Z,11.57
2022-11-16T14:02:37.250Z,11.41
2022-11-16T14:07:44.976Z,11.53
2022-11-16T14:12:53.322Z,11.25
2022-11-16T14:18:01.327Z,11.02
2022-11-16T14:23:17.282Z,10.84
2022-11-16T14:28:42.309Z,10.53
2022-11-16T14:33:52.474Z,10.13
2022-11-16T14:39:14.465Z,9.66
2022-11-16T14:44:21.785Z,9.82
2022-11-16T14:49:26.272Z,9.73
2022-11-16T14:54:36.558Z,9.55
2022-11-16T14:59:40.249Z,9.51
2022-11-16T15:04:44.431Z,9.14
2022-11-16T15:09:51.889Z,8.63
2022-11-16T15:14:59.110Z,8.85
2022-11-16T15:20:06.117Z,8.64
2022-11-16T15:25:26.182Z,8.43
2022-11-16T15:30:33.181Z,8.08
2022-11-16T15:35:38.820Z,8.41
2022-11-16T15:40:48.198Z,8.23
2022-11-16T15:45:52.476Z,7.80
2022-11-16T15:51:03.040Z,7.89
2022-11-16T15:56:14.034Z,7.46
2022-11-16T16:01:18.676Z,7.57
2022-11-16T16:06:47.556Z,7.53
2022-11-16T16:11:53.413Z,7.13
2022-11-16T16:16:59.758Z,7.01
2022-11-16T16:22:04.340Z,6.75
2022-11-16T16:27:18.340Z,6.53
2022-11-16T16:32:27.526Z,6.47
2022-11-16T16:37:32.599Z,6.01
2022-11-16T16:42:37.800Z,5.91
2022-11-16T16:47:41.530Z,5.90
2022-11-16T16:52:45.767Z,5.84
2022-11-16T16:57:51.058Z,5.58
2022-11-16T17:02:54.874Z,4.99
2022-11-16T17:07:58.806Z,5.46
2022-11-16T17:13:04.145Z,5.27
2022-11-16T17:18:08.010Z,5.17
2022-11-16T17:23:12.166Z,5.10
2022-11-16T17:28:17.387Z,5.03
2022-11-16T17:33:21.046Z,4.95
2022-11-16T17:38:25.106Z,4.70
2022-11-16T17:43:30.275Z,4.79
2022-11-16T17:48:35.039Z,4.78
2022-11-16T17:53:40.041Z,4.68
2022-11-16T17:58:45.449Z,4.57
2022-11-16T18:03:49.239Z,4.28
2022-11-16T18:08:54.233Z,4.44
2022-11-16T18:14:01.017Z,4.31
2022-11-16T18:19:07.506Z,4.30
2022-11-16T18:24:12.292Z,4.17
2022-11-16T18:29:19.272Z,4.13
2022-11-16T18:34:23.053Z,3.95
2022-11-16T18:39:26.666Z,3.83
2022-11-16T18:44:31.845Z,3.72
2022-11-16T18:49:35.843Z,3.79
2022-11-16T18:54:39.675Z,3.75
2022-11-16T18:59:44.798Z,3.79
2022-11-16T19:04:48.572Z,3.74
2022-11-16T19:09:52.118Z,3.72
2022-11-16T19:14:57.617Z,3.53
2022-11-16T19:20:01.621Z,3.40
2022-11-16T19:25:06.665Z,3.34
2022-11-16T19:30:12.302Z,3.18
2022-11-16T19:35:16.435Z,3.08
2022-11-16T19:40:24.856Z,3.20
2022-11-16T19:45:30.741Z,3.30
2022-11-16T19:50:36.502Z,3.25
2022-11-16T19:55:41.595Z,3.45
2022-11-16T20:00:47.031Z,3.53
2022-11-16T20:05:50.723Z,3.43
2022-11-16T20:10:54.410Z,3.47
2022-11-16T20:16:02.247Z,3.30
2022-11-16T20:21:07.852Z,3.42
2022-11-16T20:26:12.856Z,3.47
2022-11-16T20:31:20.005Z,3.65
2022-11-16T20:36:25.790Z,3.81
2022-11-16T20:41:31.204Z,3.80
2022-11-16T20:46:38.502Z,3.71
2022-11-16T20:51:42.249Z,3.94
2022-11-16T20:56:48.124Z,4.01
2022-11-16T21:01:56.509Z,4.03
2022-11-16T21:07:00.910Z,4.21
2022-11-16T21:12:22.458Z,4.18
2022-11-16T21:17:28.348Z,4.20
2022-11-16T21:22:32.879Z,4.49
2022-11-16T21:27:37.181Z,4.61
2022-11-16T21:32:42.527Z,4.68
2022-11-16T21:37:46.420Z,4.83
2022-11-16T21:42:52.007Z,4.89
2022-11-16T21:47:57.628Z,4.93
2022-11-16T21:53:01.989Z,4.88
2022-11-16T21:58:05.687Z,4.64
2022-11-16T22:03:11.444Z,4.66
2022-11-16T22:08:15.089Z,4.81
2022-11-16T22:13:19.369Z,5.01
2022-11-16T22:18:24.457Z,5.04
2022-11-16T22:23:28.548Z,5.10
2022-11-16T22:28:32.377Z,4.77
2022-11-16T22:33:37.746Z,4.98
2022-11-16T22:38:41.681Z,5.25
2022-11-16T22:43:45.345Z,5.19
2022-11-16T22:48:50.305Z,5.23
2022-11-16T22:53:55.117Z,5.52
2022-11-16T22:58:59.479Z,5.42
2022-11-16T23:04:05.040Z,5.40
2022-11-16T23:09:08.646Z,5.47
2022-11-16T23:14:34.979Z,5.31
2022-11-16T23:19:57.863Z,5.34
2022-11-16T23:25:19.606Z,5.42
2022-11-16T23:30:23.723Z,5.50
2022-11-16T23:35:28.688Z,5.50
2022-11-16T23:40:34.986Z,5.45
2022-11-16T23:45:38.864Z,5.44
2022-11-16T23:50:44.671Z,5.27
2022-11-16T23:55:48.847Z,5.35
